createdAt,value
2018-01-02T00:02:04.925Z,60.90
2018-01-02T00:04:31.087Z,61.10
2018-01-02T00:06:59.004Z,60.90
2018-01-02T00:09:25.173Z,60.90
2018-01-02T00:11:51.448Z,60.90
2018-01-02T00:14:17.668Z,60.90
2018-01-02T00:16:43.842Z,59.50
2018-01-02T00:19:10.060Z,59.00
2018-01-02T00:21:36.288Z,59.10
2018-01-02T00:24:02.472Z,58.60
2018-01-02T00:26:28.691Z,58.90
2018-01-02T00:28:54.883Z,59.50
2018-01-02T00:31:21.175Z,59.30
2018-01-02T00:33:48.270Z,59.10
2018-01-02T00:36:14.461Z,59.10
2018-01-02T00:38:41.743Z,58.70
2018-01-02T00:41:07.932Z,59.20
2018-01-02T00:43:34.090Z,60.50
2018-01-02T00:46:01.030Z,58.30
2018-01-02T00:48:27.212Z,58.40
2018-01-02T00:50:53.593Z,59.80
2018-01-02T00:53:19.759Z,60.90
2018-01-02T00:55:46.728Z,58.70
2018-01-02T00:58:12.939Z,58.80
2018-01-02T01:00:39.139Z,58.50
2018-01-02T01:03:05.302Z,57.90
2018-01-02T01:05:31.496Z,57.20
2018-01-02T01:07:57.691Z,57.50
2018-01-02T01:10:23.841Z,57.60
2018-01-02T01:12:50.229Z,57.60
2018-01-02T01:15:16.404Z,56.20
2018-01-02T01:17:42.592Z,56.20
2018-01-02T01:20:08.868Z,56.70
2018-01-02T01:22:35.104Z,56.90
2018-01-02T01:25:01.271Z,56.00
2018-01-02T01:27:27.980Z,55.40
2018-01-02T01:29:54.162Z,55.30
2018-01-02T01:32:20.352Z,56.70
2018-01-02T01:34:46.980Z,55.90
2018-01-02T01:37:13.202Z,55.80
2018-01-02T01:39:39.409Z,57.70
2018-01-02T01:42:05.602Z,56.60
2018-01-02T01:44:31.819Z,56.90
2018-01-02T01:46:58.043Z,56.80
2018-01-02T01:49:24.235Z,58.60
2018-01-02T01:51:50.441Z,59.20
2018-01-02T01:54:16.639Z,58.20
2018-01-02T01:56:42.807Z,59.00
2018-01-02T01:59:08.999Z,58.40
2018-01-02T02:01:35.212Z,58.50
2018-01-02T02:04:01.408Z,58.60
2018-01-02T02:06:27.592Z,58.70
2018-01-02T02:08:53.794Z,58.30
2018-01-02T02:11:20.723Z,58.10
2018-01-02T02:13:47.060Z,58.10
2018-01-02T02:16:13.271Z,57.60
2018-01-02T02:18:39.476Z,58.50
2018-01-02T02:21:05.815Z,57.50
2018-01-02T02:23:31.996Z,57.90
2018-01-02T02:25:58.187Z,57.60
2018-01-02T02:28:24.557Z,58.00
2018-01-02T02:30:50.768Z,58.30
2018-01-02T02:33:16.963Z,58.70
2018-01-02T02:35:43.314Z,59.20
2018-01-02T02:38:10.320Z,59.70
2018-01-02T02:40:48.917Z,59.00
2018-01-02T02:43:15.181Z,59.40
2018-01-02T02:45:41.397Z,60.50
2018-01-02T02:48:07.624Z,60.50
2018-01-02T02:50:33.875Z,59.20
2018-01-02T02:53:01.000Z,59.80
2018-01-02T02:55:27.180Z,57.40
2018-01-02T02:57:53.449Z,57.30
2018-01-02T03:00:19.648Z,57.30
2018-01-02T03:02:46.667Z,57.70
2018-01-02T03:05:12.938Z,56.70
2018-01-02T03:07:39.139Z,56.80
2018-01-02T03:10:05.341Z,56.70
2018-01-02T03:12:31.612Z,56.40
2018-01-02T03:14:57.821Z,56.50
2018-01-02T03:17:24.013Z,56.20
2018-01-02T03:19:50.353Z,56.90
2018-01-02T03:22:16.561Z,56.40
2018-01-02T03:24:42.825Z,57.40
2018-01-02T03:27:09.048Z,57.00
2018-01-02T03:29:35.220Z,57.80
2018-01-02T03:32:01.435Z,57.40
2018-01-02T03:34:28.356Z,57.00
2018-01-02T03:36:54.714Z,57.10
2018-01-02T03:39:20.897Z,57.10
2018-01-02T03:41:47.840Z,58.50
2018-01-02T03:44:14.045Z,58.50
2018-01-02T03:46:40.263Z,58.70
2018-01-02T03:49:06.443Z,58.90
2018-01-02T03:51:32.677Z,58.50
2018-01-02T03:53:58.900Z,58.20
2018-01-02T03:56:25.094Z,58.00
2018-01-02T03:58:52.043Z,58.50
2018-01-02T04:01:18.231Z,58.50
2018-01-02T04:03:44.455Z,57.90
2018-01-02T04:06:11.876Z,57.80
2018-01-02T04:08:38.173Z,57.60
2018-01-02T04:11:04.346Z,57.60
2018-01-02T04:13:30.540Z,58.70
2018-01-02T04:15:57.572Z,58.40
2018-01-02T04:18:23.812Z,58.40
2018-01-02T04:20:50.000Z,58.10
2018-01-02T04:23:16.261Z,58.90
2018-01-02T04:25:42.419Z,58.40
2018-01-02T04:28:08.687Z,58.60
2018-01-02T04:30:34.903Z,58.10
2018-01-02T04:33:01.095Z,58.70
2018-01-02T04:35:27.285Z,58.40
2018-01-02T04:37:53.753Z,58.00
2018-01-02T04:40:19.954Z,58.50
2018-01-02T04:42:46.164Z,59.00
2018-01-02T04:45:12.407Z,60.10
2018-01-02T04:47:38.603Z,60.10
2018-01-02T04:50:04.805Z,60.00
2018-01-02T04:52:31.507Z,61.20
2018-01-02T04:54:57.699Z,60.10
2018-01-02T04:57:24.645Z,61.80
2018-01-02T04:59:50.833Z,61.70
2018-01-02T05:02:17.852Z,63.30
2018-01-02T05:04:44.023Z,62.50
2018-01-02T05:07:10.263Z,62.70
2018-01-02T05:09:36.568Z,62.50
2018-01-02T05:12:02.775Z,62.30
2018-01-02T05:14:28.982Z,63.50
2018-01-02T05:16:55.267Z,62.00
2018-01-02T05:19:21.495Z,62.40
2018-01-02T05:21:47.714Z,62.60
2018-01-02T05:24:13.971Z,62.40
2018-01-02T05:26:40.935Z,61.50
2018-01-02T05:29:07.190Z,61.40
2018-01-02T05:31:37.237Z,61.20
2018-01-02T05:34:03.468Z,60.10
2018-01-02T05:36:29.857Z,60.10
2018-01-02T05:38:56.065Z,60.10
2018-01-02T05:41:22.292Z,61.10
2018-01-02T05:43:49.312Z,60.10
2018-01-02T05:46:15.510Z,60.10
2018-01-02T05:48:41.686Z,60.10
2018-01-02T05:51:07.918Z,60.10
2018-01-02T05:53:34.112Z,60.10
2018-01-02T05:56:00.331Z,60.10
2018-01-02T05:58:26.653Z,60.20
2018-01-02T06:00:52.860Z,60.20
2018-01-02T06:03:19.043Z,60.20
2018-01-02T06:05:46.012Z,60.10
2018-01-02T06:08:12.271Z,60.10
2018-01-02T06:10:39.292Z,59.60
2018-01-02T06:13:05.473Z,60.20
2018-01-02T06:15:31.807Z,59.90
2018-01-02T06:17:58.004Z,60.20
2018-01-02T06:20:24.203Z,60.20
2018-01-02T06:22:50.496Z,60.20
2018-01-02T06:25:16.743Z,59.30
2018-01-02T06:27:44.006Z,59.30
2018-01-02T06:30:10.372Z,60.20
2018-01-02T06:32:36.648Z,60.20
2018-01-02T06:35:02.832Z,60.20
2018-01-02T06:37:29.221Z,60.20
2018-01-02T06:39:55.444Z,60.20
2018-01-02T06:42:21.637Z,60.20
2018-01-02T06:44:48.509Z,60.20
2018-01-02T06:47:14.865Z,60.20
2018-01-02T06:49:41.802Z,60.20
2018-01-02T06:52:08.005Z,60.20
2018-01-02T06:54:34.269Z,60.50
2018-01-02T06:57:00.456Z,60.50
2018-01-02T06:59:26.667Z,60.20
2018-01-02T07:01:52.951Z,60.60
2018-01-02T07:04:19.183Z,60.20
2018-01-02T07:06:45.367Z,60.50
2018-01-02T07:09:11.717Z,60.20
2018-01-02T07:11:37.885Z,60.20
2018-01-02T07:14:04.105Z,61.30
2018-01-02T07:16:30.485Z,60.60
2018-01-02T07:18:56.759Z,60.90
2018-01-02T07:21:23.729Z,60.20
2018-01-02T07:23:49.895Z,60.20
2018-01-02T07:26:16.083Z,60.90
2018-01-02T07:28:42.273Z,62.00
2018-01-02T07:31:08.467Z,61.10
2018-01-02T07:33:34.669Z,61.10
2018-01-02T07:36:00.868Z,62.20
2018-01-02T07:38:27.864Z,63.00
2018-01-02T07:40:54.129Z,62.90
2018-01-02T07:43:20.356Z,63.90
2018-01-02T07:45:46.566Z,64.20
2018-01-02T07:48:12.847Z,63.90
2018-01-02T07:50:39.024Z,64.90
2018-01-02T07:53:05.223Z,64.90
2018-01-02T07:55:31.460Z,64.60
2018-01-02T07:57:58.001Z,65.40
2018-01-02T08:00:24.929Z,65.30
2018-01-02T08:02:51.241Z,65.40
2018-01-02T08:05:17.417Z,66.00
2018-01-02T08:07:43.940Z,66.30
2018-01-02T08:10:10.320Z,65.20
2018-01-02T08:12:37.321Z,65.30
2018-01-02T08:15:03.603Z,65.40
2018-01-02T08:17:29.784Z,66.00
2018-01-02T08:19:56.033Z,66.10
2018-01-02T08:22:22.286Z,65.30
2018-01-02T08:24:48.455Z,66.90
2018-01-02T08:27:15.492Z,65.40
2018-01-02T08:29:42.553Z,66.10
2018-01-02T08:32:08.718Z,66.00
2018-01-02T08:34:35.024Z,64.70
2018-01-02T08:37:01.192Z,64.50
2018-01-02T08:39:27.380Z,65.30
2018-01-02T08:41:53.641Z,65.40
2018-01-02T08:44:19.838Z,64.80
2018-01-02T08:46:46.025Z,64.80
2018-01-02T08:49:12.380Z,64.90
2018-01-02T08:51:38.590Z,65.50
2018-01-02T08:54:04.780Z,64.80
2018-01-02T08:56:31.226Z,66.20
2018-01-02T08:58:58.275Z,65.00
2018-01-02T09:01:25.255Z,64.50
2018-01-02T09:03:51.419Z,64.50
2018-01-02T09:06:17.846Z,63.80
2018-01-02T09:08:44.031Z,63.90
2018-01-02T09:11:10.211Z,62.70
2018-01-02T09:13:42.672Z,62.80
2018-01-02T09:16:09.113Z,62.20
2018-01-02T09:18:36.056Z,61.50
2018-01-02T09:21:03.153Z,61.50
2018-01-02T09:23:29.364Z,62.60
2018-01-02T09:25:55.666Z,61.70
2018-01-02T09:28:21.905Z,62.00
2018-01-02T09:30:48.093Z,61.30
2018-01-02T09:33:14.286Z,60.80
2018-01-02T09:35:40.504Z,61.90
2018-01-02T09:38:06.715Z,62.10
2018-01-02T09:40:32.888Z,62.60
2018-01-02T09:42:59.163Z,61.00
2018-01-02T09:45:25.434Z,61.80
2018-01-02T09:47:51.658Z,61.70
2018-01-02T09:50:17.860Z,61.60
2018-01-02T09:52:44.035Z,61.00
2018-01-02T09:55:10.977Z,61.40
2018-01-02T09:57:37.886Z,60.60
2018-01-02T10:00:04.185Z,60.60
2018-01-02T10:02:30.464Z,60.60
2018-01-02T10:04:56.816Z,61.50
2018-01-02T10:07:23.231Z,60.20
2018-01-02T10:09:49.939Z,60.70
2018-01-02T10:12:16.117Z,60.70
2018-01-02T10:14:42.364Z,60.70
2018-01-02T10:17:08.529Z,60.70
2018-01-02T10:19:34.747Z,59.80
2018-01-02T10:22:01.007Z,60.00
2018-01-02T10:24:27.219Z,60.00
2018-01-02T10:26:53.415Z,59.40
2018-01-02T10:29:19.576Z,59.50
2018-01-02T10:31:47.373Z,58.50
2018-01-02T10:34:13.543Z,57.20
2018-01-02T10:36:39.757Z,57.60
2018-01-02T10:39:06.671Z,56.10
2018-01-02T10:41:32.856Z,56.00
2018-01-02T10:43:59.792Z,55.00
2018-01-02T10:46:26.735Z,55.70
2018-01-02T10:48:53.976Z,55.70
2018-01-02T10:51:20.167Z,54.70
2018-01-02T10:53:46.348Z,54.50
2018-01-02T10:56:12.516Z,54.20
2018-01-02T10:58:39.721Z,54.90
2018-01-02T11:01:05.920Z,54.80
2018-01-02T11:03:32.113Z,55.00
2018-01-02T11:05:58.365Z,55.60
2018-01-02T11:08:25.308Z,53.60
2018-01-02T11:10:57.637Z,53.60
2018-01-02T11:13:23.972Z,53.10
2018-01-02T11:15:50.903Z,54.10
2018-01-02T11:18:17.835Z,52.40
2018-01-02T11:20:44.761Z,53.40
2018-01-02T11:23:11.706Z,52.80
2018-01-02T11:25:38.049Z,52.70
2018-01-02T11:28:04.238Z,52.00
2018-01-02T11:30:30.476Z,51.90
2018-01-02T11:32:56.643Z,51.90
2018-01-02T11:35:23.575Z,52.10
2018-01-02T11:37:50.492Z,52.10
2018-01-02T11:40:16.702Z,52.00
2018-01-02T11:42:42.876Z,50.70
2018-01-02T11:45:09.054Z,52.10
2018-01-02T11:47:36.187Z,50.80
2018-01-02T11:50:02.441Z,50.80
2018-01-02T11:52:28.647Z,52.10
2018-01-02T11:54:54.859Z,52.10
2018-01-02T11:57:21.072Z,52.00
2018-01-02T11:59:47.413Z,51.90
2018-01-02T12:02:13.676Z,51.90
2018-01-02T12:04:39.840Z,51.90
2018-01-02T12:07:06.028Z,51.00
2018-01-02T12:09:32.285Z,52.00
2018-01-02T12:11:58.557Z,51.90
2018-01-02T12:14:24.784Z,51.90
2018-01-02T12:16:51.443Z,51.80
2018-01-02T12:19:18.353Z,53.30
2018-01-02T12:21:44.563Z,53.30
2018-01-02T12:24:10.732Z,52.30
2018-01-02T12:26:36.923Z,51.90
2018-01-02T12:29:03.138Z,51.90
2018-01-02T12:31:29.390Z,51.90
2018-01-02T12:33:55.612Z,51.90
2018-01-02T12:36:21.832Z,51.90
2018-01-02T12:38:48.111Z,52.00
2018-01-02T12:41:14.288Z,51.90
2018-01-02T12:43:40.474Z,51.30
2018-01-02T12:46:06.846Z,51.10
2018-01-02T12:48:33.078Z,51.80
2018-01-02T12:50:59.260Z,51.80
2018-01-02T12:53:25.430Z,51.80
2018-01-02T12:55:51.616Z,51.70
2018-01-02T12:58:17.792Z,52.20
2018-01-02T13:00:45.200Z,52.30
2018-01-02T13:03:11.629Z,52.40
2018-01-02T13:05:38.624Z,51.80
2018-01-02T13:08:04.836Z,51.70
2018-01-02T13:10:31.200Z,51.70
2018-01-02T13:12:57.373Z,52.50
2018-01-02T13:15:23.593Z,54.30
2018-01-02T13:17:49.855Z,52.20
2018-01-02T13:20:16.976Z,54.20
2018-01-02T13:22:43.228Z,54.20
2018-01-02T13:25:09.463Z,52.10
2018-01-02T13:27:35.784Z,52.10
2018-01-02T13:30:01.989Z,53.00
2018-01-02T13:32:28.162Z,51.90
2018-01-02T13:34:55.232Z,51.50
2018-01-02T13:37:21.451Z,51.40
2018-01-02T13:39:47.639Z,51.30
2018-01-02T13:42:14.599Z,50.50
2018-01-02T13:44:40.966Z,50.50
2018-01-02T13:47:07.178Z,51.00
2018-01-02T13:49:34.110Z,50.30
2018-01-02T13:52:01.187Z,49.90
2018-01-02T13:54:27.464Z,49.80
2018-01-02T13:56:53.656Z,50.00
2018-01-02T13:59:20.593Z,51.70
2018-01-02T14:01:46.848Z,51.60
2018-01-02T14:04:13.024Z,51.00
2018-01-02T14:06:39.933Z,49.60
2018-01-02T14:09:06.281Z,49.50
2018-01-02T14:11:33.188Z,50.20
2018-01-02T14:14:00.121Z,51.20
2018-01-02T14:16:28.232Z,51.20
2018-01-02T14:18:54.764Z,51.70
2018-01-02T14:21:21.951Z,51.70
2018-01-02T14:23:48.882Z,51.00
2018-01-02T14:26:15.799Z,51.70
2018-01-02T14:28:41.980Z,51.60
2018-01-02T14:31:08.218Z,51.60
2018-01-02T14:33:34.398Z,52.00
2018-01-02T14:36:00.588Z,51.70
2018-01-02T14:38:26.792Z,51.30
2018-01-02T14:40:52.979Z,51.60
2018-01-02T14:43:19.217Z,51.60
2018-01-02T14:45:45.391Z,52.50
2018-01-02T14:48:11.577Z,51.60
2018-01-02T14:50:37.872Z,52.20
2018-01-02T14:53:04.064Z,52.50
2018-01-02T14:55:30.231Z,52.90
2018-01-02T14:57:56.613Z,52.40
2018-01-02T15:00:22.796Z,52.40
2018-01-02T15:02:49.711Z,52.20
2018-01-02T15:05:15.915Z,52.10
2018-01-02T15:07:43.045Z,53.00
2018-01-02T15:10:09.206Z,51.70
2018-01-02T15:12:35.388Z,51.70
2018-01-02T15:15:02.689Z,52.00
2018-01-02T15:17:28.896Z,52.10
2018-01-02T15:19:55.084Z,52.70
2018-01-02T15:22:22.003Z,51.60
2018-01-02T15:24:49.052Z,52.50
2018-01-02T15:27:15.264Z,51.60
2018-01-02T15:29:41.464Z,51.40
2018-01-02T15:32:07.858Z,51.00
2018-01-02T15:34:34.201Z,49.70
2018-01-02T15:37:01.211Z,50.90
2018-01-02T15:39:29.502Z,50.90
2018-01-02T15:41:55.876Z,50.70
2018-01-02T15:44:22.178Z,50.60
2018-01-02T15:46:48.395Z,50.90
2018-01-02T15:49:14.728Z,51.40
2018-01-02T15:51:40.931Z,51.00
2018-01-02T15:54:07.109Z,50.50
2018-01-02T15:56:34.407Z,51.40
2018-01-02T15:59:00.588Z,50.30
2018-01-02T16:01:26.796Z,51.00
2018-01-02T16:03:53.046Z,50.90
2018-01-02T16:06:19.254Z,49.80
2018-01-02T16:08:45.433Z,50.00
2018-01-02T16:11:11.716Z,50.10
2018-01-02T16:13:38.119Z,50.20
2018-01-02T16:16:04.388Z,50.10
2018-01-02T16:18:30.588Z,51.30
2018-01-02T16:20:56.814Z,50.00
2018-01-02T16:23:23.012Z,50.80
2018-01-02T16:25:49.209Z,51.20
2018-01-02T16:28:15.480Z,51.20
2018-01-02T16:30:41.724Z,51.20
2018-01-02T16:33:08.078Z,51.20
2018-01-02T16:35:34.287Z,51.10
2018-01-02T16:38:00.539Z,51.10
2018-01-02T16:40:27.460Z,51.50
2018-01-02T16:42:53.951Z,51.10
2018-01-02T16:45:20.152Z,51.10
2018-01-02T16:47:46.493Z,51.00
2018-01-02T16:50:12.816Z,50.70
2018-01-02T16:52:40.142Z,50.50
2018-01-02T16:55:06.392Z,51.00
2018-01-02T16:57:33.299Z,51.00
2018-01-02T16:59:59.587Z,51.00
2018-01-02T17:02:25.811Z,51.00
2018-01-02T17:04:52.735Z,51.70
2018-01-02T17:07:19.747Z,51.10
2018-01-02T17:09:46.019Z,51.00
2018-01-02T17:12:12.252Z,51.00
2018-01-02T17:14:38.442Z,51.00
2018-01-02T17:17:04.930Z,51.00
2018-01-02T17:19:31.922Z,51.00
2018-01-02T17:21:58.125Z,51.00
2018-01-02T17:24:24.518Z,51.70
2018-01-02T17:26:51.593Z,51.30
2018-01-02T17:29:17.784Z,51.40
2018-01-02T17:31:43.997Z,52.30
2018-01-02T17:34:10.326Z,52.10
2018-01-02T17:36:36.537Z,52.30
2018-01-02T17:39:02.802Z,52.60
2018-01-02T17:41:29.067Z,52.70
2018-01-02T17:43:56.104Z,52.70
2018-01-02T17:46:22.425Z,52.70
2018-01-02T17:48:48.691Z,53.10
2018-01-02T17:51:14.920Z,53.40
2018-01-02T17:53:41.094Z,53.00
2018-01-02T17:56:07.384Z,53.00
2018-01-02T17:58:33.619Z,52.70
2018-01-02T18:00:59.958Z,53.00
2018-01-02T18:03:26.278Z,53.40
2018-01-02T18:05:53.392Z,52.50
2018-01-02T18:08:19.729Z,52.50
2018-01-02T18:10:45.968Z,53.20
2018-01-02T18:13:12.284Z,53.20
2018-01-02T18:15:38.620Z,53.60
2018-01-02T18:18:05.603Z,52.80
2018-01-02T18:20:31.837Z,52.80
2018-01-02T18:22:58.037Z,52.60
2018-01-02T18:25:24.204Z,52.80
2018-01-02T18:27:50.653Z,53.00
2018-01-02T18:30:16.849Z,53.70
2018-01-02T18:32:43.152Z,52.80
2018-01-02T18:35:09.465Z,53.10
2018-01-02T18:37:36.967Z,53.00
2018-01-02T18:40:03.899Z,52.70
2018-01-02T18:42:30.113Z,52.60
2018-01-02T18:44:56.527Z,52.40
2018-01-02T18:47:22.714Z,52.40
2018-01-02T18:49:48.917Z,53.20
2018-01-02T18:52:15.287Z,52.80
2018-01-02T18:54:41.490Z,52.80
2018-01-02T18:57:08.469Z,52.70
2018-01-02T18:59:34.731Z,52.70
2018-01-02T19:02:01.657Z,53.40
2018-01-02T19:04:27.931Z,53.40
2018-01-02T19:06:54.105Z,53.20
2018-01-02T19:09:20.497Z,53.30
2018-01-02T19:11:47.576Z,53.50
2018-01-02T19:14:13.832Z,53.50
2018-01-02T19:16:40.178Z,53.40
2018-01-02T19:19:06.472Z,53.80
2018-01-02T19:21:32.959Z,53.40
2018-01-02T19:23:59.202Z,53.60
2018-01-02T19:26:25.499Z,53.80
2018-01-02T19:28:55.869Z,54.20
2018-01-02T19:31:22.046Z,53.80
2018-01-02T19:33:48.207Z,54.00
2018-01-02T19:36:14.864Z,54.20
2018-01-02T19:38:41.270Z,54.30
2018-01-02T19:41:07.508Z,54.20
2018-01-02T19:43:33.705Z,54.20
2018-01-02T19:45:59.962Z,55.00
2018-01-02T19:48:26.328Z,54.90
2018-01-02T19:50:52.535Z,54.70
2018-01-02T19:53:18.900Z,54.80
2018-01-02T19:55:45.156Z,54.90
2018-01-02T19:58:11.437Z,54.80
2018-01-02T20:00:37.856Z,55.20
2018-01-02T20:03:04.133Z,55.70
2018-01-02T20:05:30.308Z,55.50
2018-01-02T20:07:56.736Z,56.20
2018-01-02T20:10:22.920Z,56.10
2018-01-02T20:12:49.152Z,57.10
2018-01-02T20:15:15.633Z,57.10
2018-01-02T20:17:41.862Z,58.40
2018-01-02T20:20:08.137Z,59.30
2018-01-02T20:22:35.337Z,60.20
2018-01-02T20:25:01.693Z,60.70
2018-01-02T20:27:27.888Z,61.10
2018-01-02T20:29:54.133Z,60.60
2018-01-02T20:32:20.470Z,61.90
2018-01-02T20:34:47.528Z,64.70
2018-01-02T20:37:13.757Z,64.70
2018-01-02T20:39:40.688Z,64.80
2018-01-02T20:42:07.010Z,64.80
2018-01-02T20:44:33.247Z,65.50
2018-01-02T20:47:01.273Z,66.40
2018-01-02T20:49:27.553Z,66.40
2018-01-02T20:51:53.742Z,67.20
2018-01-02T20:54:19.984Z,67.10
2018-01-02T20:56:46.366Z,67.20
2018-01-02T20:59:12.599Z,68.00
2018-01-02T21:01:38.826Z,68.50
2018-01-02T21:04:05.105Z,68.80
2018-01-02T21:06:31.312Z,69.50
2018-01-02T21:08:57.492Z,68.70
2018-01-02T21:11:24.418Z,68.90
2018-01-02T21:13:50.691Z,68.90
2018-01-02T21:16:18.773Z,68.00
2018-01-02T21:18:44.976Z,68.00
2018-01-02T21:21:11.196Z,69.60
2018-01-02T21:23:37.378Z,69.00
2018-01-02T21:26:04.768Z,69.50
2018-01-02T21:28:30.982Z,70.30
2018-01-02T21:30:57.277Z,70.20
2018-01-02T21:33:23.546Z,70.20
2018-01-02T21:35:49.771Z,70.60
2018-01-02T21:38:16.024Z,70.20
2018-01-02T21:40:42.240Z,70.20
2018-01-02T21:43:08.432Z,70.20
2018-01-02T21:45:34.657Z,70.20
2018-01-02T21:48:00.884Z,70.10
2018-01-02T21:50:27.105Z,70.60
2018-01-02T21:52:53.379Z,71.30
2018-01-02T21:55:19.565Z,71.70
2018-01-02T21:57:45.744Z,71.30
2018-01-02T22:00:12.047Z,71.30
2018-01-02T22:02:38.274Z,71.60
2018-01-02T22:05:04.529Z,71.20
2018-01-02T22:07:30.820Z,71.80
2018-01-02T22:09:57.034Z,71.30
2018-01-02T22:12:23.253Z,72.10
2018-01-02T22:14:49.552Z,72.50
2018-01-02T22:17:15.752Z,71.60
2018-01-02T22:19:41.979Z,71.60
2018-01-02T22:22:08.187Z,71.00
2018-01-02T22:24:34.455Z,70.60
2018-01-02T22:27:00.652Z,70.60
2018-01-02T22:29:26.836Z,70.80
2018-01-02T22:31:53.034Z,70.10
2018-01-02T22:34:19.253Z,70.50
2018-01-02T22:36:45.544Z,70.80
2018-01-02T22:39:11.868Z,70.10
2018-01-02T22:41:38.146Z,70.10
2018-01-02T22:44:04.344Z,70.10
2018-01-02T22:46:31.418Z,70.10
2018-01-02T22:48:59.754Z,70.20
2018-01-02T22:51:25.944Z,70.10
2018-01-02T22:53:52.156Z,70.60
2018-01-02T22:56:19.166Z,70.20
2018-01-02T22:58:45.373Z,70.20
2018-01-02T23:01:11.597Z,70.20
2018-01-02T23:03:37.839Z,70.80
2018-01-02T23:06:04.039Z,70.10
2018-01-02T23:08:30.971Z,70.80
2018-01-02T23:10:57.898Z,71.10
2018-01-02T23:13:24.938Z,72.50
2018-01-02T23:15:51.895Z,71.70
2018-01-02T23:18:18.111Z,71.70
2018-01-02T23:20:44.338Z,72.00
2018-01-02T23:23:10.577Z,72.40
2018-01-02T23:25:36.786Z,72.00
2018-01-02T23:28:03.015Z,72.40
2018-01-02T23:30:29.215Z,72.70
2018-01-02T23:32:55.396Z,72.80
2018-01-02T23:35:21.688Z,73.20
2018-01-02T23:37:47.885Z,73.80
2018-01-02T23:40:14.123Z,73.30
2018-01-02T23:42:40.539Z,73.70
2018-01-02T23:45:06.736Z,73.70
2018-01-02T23:47:32.913Z,74.00
2018-01-02T23:49:59.143Z,73.90
2018-01-02T23:52:26.176Z,74.40
2018-01-02T23:54:52.380Z,74.10
2018-01-02T23:57:18.561Z,74.40
2018-01-02T23:59:44.964Z,74.40
